Time;durP1;ratioP1;P1;durP2;ratioP2;P2;SDS_P1;SDS_P2;PMS_P1;PMS_P2;Temp;Humidity;BMP_temperature;BMP_pressure;BME280_temperature;BME280_humidity;BME280_pressure;Samples;Min_cycle;Max_cycle;Signal;HPM_P1;HPM_P2
2022/04/22 00:01:58;;;;;;;8.23;5.28;;;;;;;9.24;100.00;94811.09;5037450;28;20471;-69
2022/04/22 00:04:32;;;;;;;11.18;6.57;;;;;;;9.22;100.00;94810.53;5038198;28;20045;-69
2022/04/22 00:07:00;;;;;;;9.57;6.15;;;;;;;9.17;100.00;94807.78;5043130;28;20072;-69
2022/04/22 00:09:26;;;;;;;12.75;6.53;;;;;;;9.24;100.00;94803.28;5043195;28;20097;-69
2022/04/22 00:11:53;;;;;;;13.73;7.03;;;;;;;9.29;100.00;94784.41;5043034;28;20041;-69
2022/04/22 00:14:20;;;;;;;12.50;5.95;;;;;;;9.32;100.00;94778.78;5039310;28;20575;-69
2022/04/22 00:16:47;;;;;;;10.52;7.22;;;;;;;9.29;100.00;94793.03;5040450;28;20087;-69
2022/04/22 00:19:16;;;;;;;15.98;6.95;;;;;;;9.15;100.00;94805.41;5040588;28;20048;-69
2022/04/22 00:21:43;;;;;;;11.88;7.18;;;;;;;9.00;100.00;94807.59;5043213;28;20056;-69
2022/04/22 00:24:10;;;;;;;12.27;7.40;;;;;;;8.94;100.00;94814.47;5024667;28;20041;-69
2022/04/22 00:26:37;;;;;;;13.25;7.60;;;;;;;8.74;100.00;94825.13;5032736;28;20053;-69
2022/04/22 00:29:04;;;;;;;11.70;7.97;;;;;;;8.56;100.00;94807.78;5013320;28;20064;-69
2022/04/22 00:31:31;;;;;;;14.20;9.13;;;;;;;8.68;100.00;94800.06;5037239;28;20049;-69
2022/04/22 00:33:58;;;;;;;26.27;13.80;;;;;;;8.74;100.00;94788.00;5040363;28;20068;-69
2022/04/22 00:36:25;;;;;;;25.00;13.38;;;;;;;8.81;100.00;94788.69;5043287;28;20479;-68
2022/04/22 00:38:52;;;;;;;22.77;11.27;;;;;;;8.85;100.00;94761.28;5043517;28;20061;-69
2022/04/22 00:41:19;;;;;;;20.13;10.50;;;;;;;8.86;100.00;94760.28;5041027;28;20429;-68
2022/04/22 00:43:52;;;;;;;18.77;9.90;;;;;;;8.90;100.00;94758.81;5030155;28;20053;-68
2022/04/22 00:46:19;;;;;;;15.93;8.82;;;;;;;8.92;100.00;94748.97;5040291;28;20483;-68
2022/04/22 00:48:47;;;;;;;14.23;9.18;;;;;;;8.90;100.00;94740.63;5034937;28;20049;-70
2022/04/22 00:51:14;;;;;;;15.48;9.70;;;;;;;8.94;100.00;94757.34;5040650;28;20529;-69
2022/04/22 00:53:44;;;;;;;16.30;9.75;;;;;;;8.91;100.00;94778.59;5040069;28;20056;-70
2022/04/22 00:56:12;;;;;;;17.33;9.88;;;;;;;8.72;100.00;94777.03;5042156;28;20040;-69
2022/04/22 00:58:42;;;;;;;22.38;11.80;;;;;;;8.73;100.00;94770.81;5038400;28;20576;-69
2022/04/22 01:01:10;;;;;;;22.52;12.77;;;;;;;8.82;100.00;94779.09;5036954;28;20052;-69
2022/04/22 01:03:38;;;;;;;22.02;12.38;;;;;;;8.83;100.00;94776.28;5036150;28;20041;-69
2022/04/22 01:11:39;;;;;;;15.98;9.85;;;;;;;8.84;100.00;94770.09;5031127;28;20127;-69
2022/04/22 01:14:07;;;;;;;19.15;10.13;;;;;;;8.80;100.00;94751.56;5037494;28;20526;-70
2022/04/22 01:16:34;;;;;;;14.65;9.32;;;;;;;8.83;100.00;94737.34;5036496;28;20087;-70
2022/04/22 01:19:01;;;;;;;26.50;10.10;;;;;;;8.78;100.00;94711.22;5022734;28;20049;-70
2022/04/22 01:21:28;;;;;;;18.60;9.13;;;;;;;8.79;100.00;94723.22;5032675;28;20471;-70
2022/04/22 01:23:55;;;;;;;16.60;8.52;;;;;;;8.75;100.00;94735.03;5042768;28;20098;-70
2022/04/22 01:26:22;;;;;;;14.13;7.93;;;;;;;8.66;100.00;94744.16;5040680;28;20049;-70
2022/04/22 01:28:51;;;;;;;13.32;7.60;;;;;;;8.68;100.00;94742.94;5029785;28;20495;-69
2022/04/22 01:31:22;;;;;;;16.35;8.57;;;;;;;8.76;100.00;94734.03;5034927;28;20068;-69
2022/04/22 01:33:48;;;;;;;17.58;8.48;;;;;;;8.74;100.00;94720.47;5032498;28;20130;-69
2022/04/22 01:36:16;;;;;;;10.68;7.55;;;;;;;8.76;100.00;94708.06;5038283;28;20056;-68
2022/04/22 01:38:43;;;;;;;12.55;7.47;;;;;;;8.73;100.00;94690.31;5050636;28;20443;-68
2022/04/22 01:41:10;;;;;;;12.35;7.38;;;;;;;8.66;100.00;94676.66;5060341;28;20127;-68
2022/04/22 01:43:37;;;;;;;13.70;8.10;;;;;;;8.64;100.00;94681.28;5054711;28;20044;-68
2022/04/22 01:46:04;;;;;;;14.25;8.63;;;;;;;8.68;100.00;94674.63;5053874;28;20417;-68
2022/04/22 01:48:32;;;;;;;20.70;10.23;;;;;;;8.63;100.00;94671.91;5053341;28;20056;-68
2022/04/22 01:50:59;;;;;;;22.10;11.38;;;;;;;8.57;100.00;94679.56;5059134;28;20044;-68
2022/04/22 01:53:26;;;;;;;21.25;10.75;;;;;;;8.54;100.00;94669.63;5048101;28;20520;-68
2022/04/22 01:55:53;;;;;;;21.40;12.57;;;;;;;8.60;100.00;94689.50;5059610;28;20688;-68
2022/04/22 01:58:20;;;;;;;20.15;10.40;;;;;;;8.67;100.00;94693.81;5030823;28;20496;-68
2022/04/22 02:00:47;;;;;;;19.45;10.80;;;;;;;8.67;100.00;94688.63;5053053;28;20045;-68
2022/04/22 02:03:13;;;;;;;18.95;11.30;;;;;;;8.69;100.00;94691.78;5043672;28;20048;-68
2022/04/22 02:05:40;;;;;;;20.15;11.02;;;;;;;8.72;100.00;94701.75;5053676;28;20067;-69
2022/04/22 02:08:09;;;;;;;17.25;11.32;;;;;;;8.73;100.00;94708.50;5054225;28;20067;-68
2022/04/22 02:10:36;;;;;;;24.80;11.88;;;;;;;8.77;100.00;94699.28;5044777;28;20037;-69
2022/04/22 02:13:03;;;;;;;20.27;11.45;;;;;;;8.73;100.00;94698.13;5047984;28;20053;-69
2022/04/22 02:15:30;;;;;;;17.50;10.55;;;;;;;8.74;100.00;94704.91;5059261;28;20040;-69
2022/04/22 02:17:56;;;;;;;17.55;10.18;;;;;;;8.70;100.00;94716.75;5059287;28;20045;-69
2022/04/22 02:20:23;;;;;;;17.73;11.07;;;;;;;8.72;100.00;94727.72;5049688;28;20044;-69
2022/04/22 02:22:51;;;;;;;16.90;10.40;;;;;;;8.69;100.00;94726.31;5061762;28;20178;-68
2022/04/22 02:25:18;;;;;;;18.92;10.63;;;;;;;8.76;100.00;94744.41;5035978;28;20110;-68
2022/04/22 02:30:31;;;;;;;20.23;9.80;;;;;;;8.74;100.00;94739.44;5054263;28;20040;-68
2022/04/22 02:32:58;;;;;;;17.35;9.18;;;;;;;8.76;100.00;94747.03;5041187;28;20577;-68
2022/04/22 02:35:24;;;;;;;18.75;10.25;;;;;;;8.79;100.00;94744.00;5059349;28;20057;-68
2022/04/22 02:37:54;;;;;;;17.63;10.30;;;;;;;8.74;100.00;94728.28;5054609;28;20052;-68
2022/04/22 02:45:52;;;;;;;18.58;9.73;;;;;;;8.66;100.00;94708.63;5058498;28;20498;-69
2022/04/22 02:48:20;;;;;;;15.52;7.95;;;;;;;8.60;100.00;94694.69;5054753;28;20076;-69
2022/04/22 02:50:47;;;;;;;13.75;8.52;;;;;;;8.64;100.00;94699.44;5058537;28;20045;-69
2022/04/22 02:53:14;;;;;;;17.23;8.55;;;;;;;8.61;100.00;94709.25;5050236;28;20048;-69
2022/04/22 02:55:47;;;;;;;14.15;8.43;;;;;;;8.61;100.00;94698.88;5060818;28;20521;-69
2022/04/22 02:58:14;;;;;;;15.05;7.95;;;;;;;8.64;100.00;94694.25;5052445;28;20095;-69
2022/04/22 03:00:42;;;;;;;15.05;8.38;;;;;;;8.61;100.00;94688.50;5045854;28;20033;-69
2022/04/22 03:03:09;;;;;;;18.48;9.77;;;;;;;8.58;100.00;94701.91;5045747;28;20069;-69
2022/04/22 03:05:35;;;;;;;11.25;7.60;;;;;;;8.61;100.00;94711.88;5064201;28;20087;-69
2022/04/22 03:08:05;;;;;;;11.70;7.60;;;;;;;8.55;100.00;94686.81;5059531;28;20076;-69
2022/04/22 03:10:32;;;;;;;17.98;8.95;;;;;;;8.56;100.00;94693.56;5050981;28;20041;-69
2022/04/22 03:12:59;;;;;;;13.60;7.32;;;;;;;8.60;100.00;94705.06;5047199;28;20498;-69
2022/04/22 03:15:26;;;;;;;14.18;7.63;;;;;;;8.61;100.00;94711.88;5046762;28;20103;-69
2022/04/22 03:17:53;;;;;;;20.15;7.05;;;;;;;8.62;100.00;94702.25;5052595;28;20501;-69
2022/04/22 03:20:20;;;;;;;11.75;6.97;;;;;;;8.60;100.00;94710.25;5051860;28;20044;-69
2022/04/22 03:22:47;;;;;;;10.30;6.55;;;;;;;8.59;100.00;94703.50;5055977;28;20040;-69
2022/04/22 03:25:16;;;;;;;10.45;6.25;;;;;;;8.65;100.00;94706.25;5058368;28;20049;-69
2022/04/22 03:27:42;;;;;;;15.57;6.68;;;;;;;8.65;100.00;94716.63;5051916;28;20041;-69
2022/04/22 03:30:10;;;;;;;12.60;6.18;;;;;;;8.65;100.00;94716.63;5044613;28;20056;-69
2022/04/22 03:32:37;;;;;;;13.73;7.90;;;;;;;8.59;100.00;94719.09;5051702;28;20053;-68
2022/04/22 03:35:05;;;;;;;9.80;6.25;;;;;;;8.69;100.00;94734.13;5041357;28;20053;-68
2022/04/22 03:37:32;;;;;;;10.43;6.72;;;;;;;8.63;100.00;94740.19;5046416;28;20056;-68
2022/04/22 03:39:59;;;;;;;8.82;5.95;;;;;;;8.68;100.00;94752.50;5054429;28;20052;-68
2022/04/22 03:42:28;;;;;;;9.95;6.38;;;;;;;8.53;100.00;94719.16;5046510;28;20433;-68
2022/04/22 03:44:58;;;;;;;12.98;7.03;;;;;;;8.53;100.00;94756.28;5050093;28;20103;-68
2022/04/22 03:47:25;;;;;;;13.07;7.18;;;;;;;8.60;100.00;94720.66;5031275;28;20049;-69
2022/04/22 03:49:52;;;;;;;11.85;6.97;;;;;;;8.56;100.00;94729.91;5032802;28;20044;-68
2022/04/22 03:52:19;;;;;;;11.43;6.80;;;;;;;8.55;100.00;94736.13;5052438;28;20049;-68
2022/04/22 03:54:46;;;;;;;9.70;6.55;;;;;;;8.56;100.00;94726.53;5036785;28;20045;-68
2022/04/22 03:59:58;;;;;;;8.98;6.40;;;;;;;8.59;100.00;94729.47;5027540;28;20599;-69
2022/04/22 04:02:25;;;;;;;20.90;10.82;;;;;;;8.50;100.00;94755.94;5022560;28;20045;-69
2022/04/22 04:04:52;;;;;;;16.38;10.25;;;;;;;8.61;100.00;94743.00;5022234;28;20049;-69
2022/04/22 04:07:20;;;;;;;19.73;8.70;;;;;;;8.65;100.00;94732.19;5032811;28;20053;-69
2022/04/22 04:18:02;;;;;;;16.83;9.32;;;;;;;8.60;100.00;94762.19;5059545;28;20048;-69
2022/04/22 04:23:14;;;;;;;16.00;8.93;;;;;;;8.50;100.00;94780.09;5045774;28;20051;-68
2022/04/22 04:25:43;;;;;;;16.13;8.88;;;;;;;8.43;100.00;94740.47;5050129;28;20701;-68
2022/04/22 04:28:11;;;;;;;16.88;9.15;;;;;;;8.40;100.00;94746.06;5055221;28;20057;-69
2022/04/22 04:30:38;;;;;;;17.70;9.57;;;;;;;8.40;100.00;94744.25;5048960;28;20721;-69
2022/04/22 04:33:06;;;;;;;15.52;9.77;;;;;;;8.50;100.00;94738.59;5050919;28;20041;-69
2022/04/22 04:35:35;;;;;;;16.20;8.90;;;;;;;8.50;100.00;94729.97;5048631;28;20060;-69
2022/04/22 04:38:02;;;;;;;15.98;9.45;;;;;;;8.47;100.00;94726.03;5057471;28;20102;-69
2022/04/22 04:40:32;;;;;;;16.63;10.82;;;;;;;8.46;100.00;94719.25;5049514;28;20049;-69
2022/04/22 04:43:00;;;;;;;23.00;13.13;;;;;;;8.40;100.00;94720.09;5057073;28;20044;-69
2022/04/22 04:45:30;;;;;;;20.52;11.95;;;;;;;8.38;100.00;94698.78;5051401;28;20041;-69
2022/04/22 04:47:57;;;;;;;20.38;12.57;;;;;;;8.39;100.00;94698.56;5015907;28;20045;-69
2022/04/22 04:50:24;;;;;;;17.70;11.30;;;;;;;8.58;100.00;94712.28;5033286;28;20041;-69
2022/04/22 04:52:51;;;;;;;22.23;12.15;;;;;;;8.60;100.00;94705.06;5040293;28;20074;-69
2022/04/22 04:55:18;;;;;;;17.60;10.65;;;;;;;8.63;100.00;94703.06;5050404;28;20646;-69
2022/04/22 04:57:45;;;;;;;19.23;11.02;;;;;;;8.67;100.00;94704.22;5057725;28;20090;-69
2022/04/22 05:00:16;;;;;;;17.83;10.27;;;;;;;8.64;100.00;94694.25;5063245;28;20106;-69
2022/04/22 05:02:44;;;;;;;19.35;9.95;;;;;;;8.71;100.00;94716.50;5059439;28;20045;-69
2022/04/22 05:05:12;;;;;;;22.08;11.02;;;;;;;8.71;100.00;94705.34;5062878;28;20143;-69
2022/04/22 05:08:06;;;;;;;17.95;11.10;;;;;;;8.83;100.00;94719.16;5056207;28;20134;-69
2022/04/22 05:10:36;;;;;;;27.00;13.07;;;;;;;8.88;100.00;94721.88;5055259;28;20048;-69
2022/04/22 05:13:03;;;;;;;17.83;10.68;;;;;;;8.91;100.00;94716.25;5054142;28;20041;-69
2022/04/22 05:15:32;;;;;;;16.73;10.23;;;;;;;8.99;100.00;94723.69;5056581;28;20074;-69
2022/04/22 05:18:02;;;;;;;20.50;12.65;;;;;;;9.02;100.00;94716.47;5054604;28;20048;-69
2022/04/22 05:20:32;;;;;;;18.02;10.20;;;;;;;9.04;100.00;94709.25;5055923;28;20076;-69
2022/04/22 05:22:59;;;;;;;16.02;8.90;;;;;;;8.97;100.00;94699.75;5060554;28;20048;-69
2022/04/22 05:25:31;;;;;;;15.00;9.88;;;;;;;9.06;100.00;94679.44;5056551;28;20044;-69
2022/04/22 05:27:58;;;;;;;15.10;9.38;;;;;;;9.05;100.00;94664.84;5057176;28;20048;-69
2022/04/22 05:33:10;;;;;;;14.25;8.90;;;;;;;9.03;100.00;94650.53;5052947;28;20121;-68
2022/04/22 05:35:37;;;;;;;19.77;9.80;;;;;;;9.01;100.00;94658.53;5050567;28;20060;-69
2022/04/22 05:38:05;;;;;;;16.33;8.88;;;;;;;9.02;100.00;94654.13;5056795;28;20064;-69
2022/04/22 05:40:36;;;;;;;14.43;8.38;;;;;;;8.98;100.00;94639.00;5056941;28;20045;-68
2022/04/22 05:43:08;;;;;;;16.42;8.98;;;;;;;8.96;100.00;94633.22;5056253;28;20045;-68
2022/04/22 05:45:36;;;;;;;15.98;9.60;;;;;;;8.92;100.00;94610.53;5057098;28;20056;-68
2022/04/22 05:48:05;;;;;;;17.45;8.98;;;;;;;8.95;100.00;94610.88;5055797;28;20055;-69
2022/04/22 05:50:32;;;;;;;14.25;9.45;;;;;;;8.99;100.00;94582.66;5056337;28;20051;-69
2022/04/22 05:52:59;;;;;;;13.43;8.00;;;;;;;8.99;100.00;94562.66;5050025;28;20051;-69
2022/04/22 05:55:27;;;;;;;12.15;7.70;;;;;;;8.95;100.00;94530.34;5026212;28;20405;-69
2022/04/22 05:57:56;;;;;;;13.63;7.95;;;;;;;9.02;100.00;94498.25;5045119;28;20433;-69
2022/04/22 06:00:25;;;;;;;11.75;7.32;;;;;;;9.07;100.00;94511.34;5040172;28;20544;-69
2022/04/22 06:02:54;;;;;;;16.23;8.88;;;;;;;9.14;100.00;94527.63;5059153;28;20083;-69
2022/04/22 06:05:22;;;;;;;13.38;8.02;;;;;;;9.26;100.00;94502.41;5060033;28;20044;-70
2022/04/22 06:10:36;;;;;;;17.75;10.23;;;;;;;9.52;100.00;94518.47;5061367;28;20052;-68
2022/04/22 06:13:04;;;;;;;20.70;12.27;;;;;;;9.52;100.00;94502.88;5052606;28;20813;-68
2022/04/22 06:15:32;;;;;;;17.98;10.98;;;;;;;9.72;100.00;94511.06;5049585;28;20491;-68
2022/04/22 06:17:59;;;;;;;14.52;9.57;;;;;;;9.81;100.00;94510.69;5053754;28;20044;-69
2022/04/22 06:20:26;;;;;;;10.25;6.93;;;;;;;9.94;100.00;94513.00;5051839;28;20044;-69
2022/04/22 06:22:54;;;;;;;9.82;6.28;;;;;;;10.03;100.00;94518.59;5059490;28;20176;-68
2022/04/22 06:25:22;;;;;;;9.32;6.03;;;;;;;10.16;100.00;94522.72;5056296;28;20054;-69
2022/04/22 06:27:49;;;;;;;9.82;5.45;;;;;;;10.24;100.00;94515.28;5059700;28;20122;-69
2022/04/22 06:30:20;;;;;;;8.95;6.18;;;;;;;10.32;100.00;94521.97;5044912;28;20052;-68
2022/04/22 06:32:50;;;;;;;8.18;6.03;;;;;;;10.41;100.00;94530.97;5052823;28;20071;-68
2022/04/22 06:35:18;;;;;;;15.00;6.90;;;;;;;10.56;100.00;94542.66;5058087;28;20056;-68
2022/04/22 06:37:47;;;;;;;9.63;5.97;;;;;;;10.67;100.00;94539.16;5046996;28;20048;-68
2022/04/22 06:45:49;;;;;;;10.02;7.45;;;;;;;11.31;100.00;94543.13;5060354;28;20704;-69
2022/04/22 06:48:21;;;;;;;12.82;7.80;;;;;;;11.48;100.00;94529.00;5056325;28;20048;-68
2022/04/22 06:51:09;;;;;;;10.00;7.22;;;;;;;11.69;100.00;94538.91;5047441;28;20052;-68
2022/04/22 06:53:37;;;;;;;12.52;7.57;;;;;;;11.88;100.00;94532.31;5053340;28;20535;-68
2022/04/22 06:56:06;;;;;;;10.25;6.38;;;;;;;12.02;100.00;94533.50;5053690;28;20049;-68
2022/04/22 06:58:37;;;;;;;11.68;4.97;;;;;;;12.12;100.00;94524.19;5057347;28;20048;-68
2022/04/22 07:01:06;;;;;;;6.53;4.75;;;;;;;12.12;98.88;94532.03;5051870;28;20521;-68
2022/04/22 07:03:53;;;;;;;6.30;4.55;;;;;;;12.19;99.31;94532.63;5054441;28;20163;-68
2022/04/22 07:06:21;;;;;;;6.72;4.20;;;;;;;12.08;98.34;94520.50;5035772;28;20040;-68
2022/04/22 07:08:49;;;;;;;6.80;4.13;;;;;;;12.14;98.69;94509.09;5045560;28;20919;-69
2022/04/22 07:11:27;;;;;;;6.82;4.50;;;;;;;12.30;97.74;94502.16;5047280;28;20123;-68
2022/04/22 07:13:55;;;;;;;4.72;3.78;;;;;;;12.41;97.16;94515.06;5059397;28;20040;-68
2022/04/22 07:16:23;;;;;;;7.07;4.68;;;;;;;12.61;96.27;94513.63;5058500;28;20036;-68
2022/04/22 07:18:52;;;;;;;5.50;4.00;;;;;;;12.82;94.85;94510.13;5057113;28;20048;-68
2022/04/22 07:21:20;;;;;;;6.10;4.25;;;;;;;12.90;93.29;94515.91;5033042;28;20152;-68
2022/04/22 07:23:47;;;;;;;5.18;3.50;;;;;;;12.90;93.16;94510.69;5040936;28;20110;-67
2022/04/22 07:26:17;;;;;;;5.88;3.85;;;;;;;12.95;92.95;94508.09;5038809;28;20056;-68
2022/04/22 07:28:49;;;;;;;9.63;3.60;;;;;;;13.12;93.27;94519.16;5037201;28;20071;-68
2022/04/22 07:31:18;;;;;;;5.80;3.80;;;;;;;13.35;93.00;94506.75;5029141;28;20456;-68
2022/04/22 07:33:46;;;;;;;4.50;3.33;;;;;;;13.61;93.07;94504.22;5035248;28;20041;-67
2022/04/22 07:36:14;;;;;;;5.95;4.50;;;;;;;13.77;91.88;94524.13;5031597;28;20499;-67
2022/04/22 07:38:41;;;;;;;5.30;3.88;;;;;;;14.01;91.20;94502.72;5030320;28;20053;-67
2022/04/22 07:41:09;;;;;;;5.70;3.92;;;;;;;14.20;90.39;94516.88;5032415;28;20053;-67
2022/04/22 07:49:11;;;;;;;5.65;4.15;;;;;;;14.43;87.45;94499.88;5060543;28;20102;-67
2022/04/22 07:51:39;;;;;;;11.23;3.85;;;;;;;14.48;88.95;94488.63;5050898;28;20044;-67
2022/04/22 07:54:08;;;;;;;4.95;3.50;;;;;;;14.61;87.63;94503.81;5051284;28;20142;-67
2022/04/22 07:56:34;;;;;;;5.95;3.58;;;;;;;14.66;87.14;94501.19;5052259;28;20078;-67
2022/04/22 07:59:01;;;;;;;5.63;4.07;;;;;;;14.80;88.90;94492.78;5056294;28;20040;-67
2022/04/22 08:01:28;;;;;;;17.40;7.82;;;;;;;14.98;86.13;94500.09;5033565;28;20437;-67
2022/04/22 08:03:58;;;;;;;8.90;4.60;;;;;;;15.17;86.87;94496.91;5030761;28;20440;-67
2022/04/22 08:06:25;;;;;;;6.57;4.80;;;;;;;15.31;86.94;94495.28;5029168;28;20908;-67
2022/04/22 08:08:53;;;;;;;8.45;6.05;;;;;;;15.56;84.66;94477.84;5035513;28;20053;-67
2022/04/22 08:11:20;;;;;;;6.05;3.97;;;;;;;15.83;85.22;94488.75;5038476;28;20056;-68
2022/04/22 08:13:47;;;;;;;5.93;3.60;;;;;;;16.00;82.19;94477.09;5033302;28;20129;-67
2022/04/22 08:16:15;;;;;;;6.47;3.50;;;;;;;16.20;79.30;94497.94;5048763;28;20835;-67
2022/04/22 08:18:42;;;;;;;5.78;3.47;;;;;;;16.30;75.48;94512.09;5048802;28;20052;-67
2022/04/22 08:21:10;;;;;;;15.65;3.83;;;;;;;16.42;74.10;94500.16;5051192;28;20087;-68
2022/04/22 08:23:37;;;;;;;7.05;3.25;;;;;;;16.59;74.16;94510.28;5040543;28;20052;-67
2022/04/22 08:26:04;;;;;;;6.40;3.60;;;;;;;16.79;71.87;94524.31;5041037;28;20136;-68
2022/04/22 08:28:31;;;;;;;6.60;3.72;;;;;;;16.79;69.78;94524.31;5052373;28;20044;-68
2022/04/22 08:30:59;;;;;;;8.82;4.03;;;;;;;16.88;71.30;94527.94;5044017;28;20033;-68
2022/04/22 08:33:26;;;;;;;5.25;3.38;;;;;;;17.05;69.96;94526.72;5050596;28;20041;-68
2022/04/22 08:35:53;;;;;;;6.22;5.03;;;;;;;17.15;71.14;94526.63;5057810;28;20053;-68
2022/04/22 08:38:20;;;;;;;6.78;4.63;;;;;;;17.37;70.77;94524.25;5055331;28;20056;-68
2022/04/22 08:40:48;;;;;;;5.45;3.90;;;;;;;17.37;69.82;94503.19;5044278;28;20058;-68
2022/04/22 08:43:17;;;;;;;9.27;5.45;;;;;;;17.35;70.52;94500.06;5051885;28;20110;-68
2022/04/22 08:45:44;;;;;;;10.30;4.88;;;;;;;17.45;69.91;94498.38;5042394;28;20635;-68
2022/04/22 08:50:59;;;;;;;9.18;5.43;;;;;;;17.82;67.85;94475.78;5043517;28;20658;-67
2022/04/22 08:53:28;;;;;;;10.40;5.53;;;;;;;17.82;69.17;94484.47;5052264;28;20037;-67
2022/04/22 08:55:57;;;;;;;5.70;3.60;;;;;;;17.78;66.34;94475.56;5049357;28;20107;-67
2022/04/22 08:58:26;;;;;;;5.88;4.40;;;;;;;17.90;67.05;94483.88;5052209;28;20047;-67
2022/04/22 09:00:58;;;;;;;9.77;4.88;;;;;;;17.95;67.30;94480.38;5057519;28;20455;-67
2022/04/22 09:03:29;;;;;;;5.10;3.38;;;;;;;17.89;64.54;94486.78;5049976;28;20053;-67
2022/04/22 09:05:56;;;;;;;4.85;3.33;;;;;;;17.89;66.25;94481.50;5057713;28;20048;-67
2022/04/22 09:08:28;;;;;;;6.68;3.80;;;;;;;17.75;65.79;94476.13;5051653;28;20179;-68
2022/04/22 09:10:56;;;;;;;6.43;3.72;;;;;;;17.93;67.23;94462.22;5060446;28;20128;-68
2022/04/22 09:13:26;;;;;;;7.18;3.95;;;;;;;18.23;65.46;94462.06;5050514;28;20052;-68
2022/04/22 09:15:55;;;;;;;6.13;3.90;;;;;;;18.34;64.99;94450.25;5059468;28;20110;-68
2022/04/22 09:18:39;;;;;;;4.70;3.80;;;;;;;18.79;62.57;94447.13;5050377;28;20517;-68
2022/04/22 09:21:14;;;;;;;7.45;4.28;;;;;;;18.98;63.58;94425.97;5053203;28;20448;-68
2022/04/22 09:23:41;;;;;;;5.63;3.80;;;;;;;19.30;60.30;94454.09;5041071;28;20060;-68
2022/04/22 09:26:24;;;;;;;7.65;4.00;;;;;;;19.41;57.23;94439.63;5053904;28;20692;-68
2022/04/22 09:29:02;;;;;;;4.10;3.40;;;;;;;19.50;60.19;94452.94;5054464;28;20429;-68
2022/04/22 09:31:29;;;;;;;7.70;4.45;;;;;;;19.61;57.27;94441.06;5046829;28;20053;-68
2022/04/22 09:33:56;;;;;;;5.28;3.65;;;;;;;19.93;57.75;94449.88;5056088;28;20041;-68
2022/04/22 09:45:04;;;;;;;5.05;2.90;;;;;;;20.47;56.10;94446.53;5066836;28;20153;-68
2022/04/22 09:47:33;;;;;;;3.78;2.92;;;;;;;20.48;53.89;94448.09;5061970;28;20452;-68
2022/04/22 09:50:03;;;;;;;8.63;4.10;;;;;;;20.57;52.43;94446.28;5059522;28;20051;-68
2022/04/22 09:52:31;;;;;;;5.78;4.05;;;;;;;20.71;53.31;94441.72;5045632;28;20114;-68
2022/04/22 09:55:01;;;;;;;3.58;2.80;;;;;;;20.86;53.38;94443.19;5031118;28;20392;-69
2022/04/22 09:57:54;;;;;;;6.60;5.75;;;;;;;20.99;55.56;94426.44;5041404;28;20130;-69
2022/04/22 10:00:26;;;;;;;8.75;3.38;;;;;;;21.19;51.22;94419.81;5036428;28;20056;-69
2022/04/22 10:02:54;;;;;;;5.53;3.03;;;;;;;21.34;52.95;94431.81;5050184;28;20044;-69
2022/04/22 10:05:23;;;;;;;8.35;3.00;;;;;;;21.54;52.38;94429.72;5037354;28;20053;-69
2022/04/22 10:07:55;;;;;;;6.03;2.60;;;;;;;21.70;51.31;94424.75;5043039;28;20053;-69
2022/04/22 10:10:37;;;;;;;5.32;3.20;;;;;;;22.02;48.36;94417.41;5016469;28;20519;-70
2022/04/22 10:13:07;;;;;;;7.75;4.35;;;;;;;22.25;48.54;94405.50;5024292;28;20126;-69
2022/04/22 10:15:39;;;;;;;7.65;3.35;;;;;;;22.48;46.22;94397.38;5036457;28;20045;-69
2022/04/22 10:18:08;;;;;;;4.72;3.08;;;;;;;22.33;45.05;94396.78;5030651;28;20049;-69
2022/04/22 10:20:37;;;;;;;11.02;3.88;;;;;;;22.45;47.62;94388.16;5038421;28;20052;-70
2022/04/22 10:23:04;;;;;;;3.88;2.85;;;;;;;22.73;47.32;94392.31;5036066;28;20582;-69
2022/04/22 10:25:33;;;;;;;7.40;3.67;;;;;;;22.46;45.57;94373.06;5036911;28;20614;-70
2022/04/22 10:28:04;;;;;;;4.45;3.45;;;;;;;22.51;46.58;94371.00;5051001;28;20413;-69
2022/04/22 10:30:32;;;;;;;12.45;5.15;;;;;;;22.70;45.28;94386.53;5045730;28;20045;-69
2022/04/22 10:33:00;;;;;;;6.57;2.90;;;;;;;22.86;45.80;94375.38;5044545;28;20047;-68
2022/04/22 10:35:27;;;;;;;4.50;2.75;;;;;;;22.87;45.49;94355.72;5047390;28;20114;-68
2022/04/22 10:37:54;;;;;;;10.68;7.20;;;;;;;22.79;43.78;94348.56;5050402;28;20045;-69
2022/04/22 10:40:24;;;;;;;7.18;4.18;;;;;;;22.94;44.83;94334.75;5038886;28;20063;-70
2022/04/22 10:42:52;;;;;;;10.20;3.33;;;;;;;22.88;42.69;94330.72;5042146;28;20040;-68
2022/04/22 10:48:27;;;;;;;6.68;3.78;;;;;;;23.18;40.62;94333.38;5061064;28;20110;-68
2022/04/22 10:51:03;;;;;;;5.40;3.45;;;;;;;23.17;41.02;94342.44;5062111;28;20051;-68
2022/04/22 10:53:36;;;;;;;6.13;2.72;;;;;;;22.74;40.88;94340.78;5065215;28;20044;-67
2022/04/22 10:56:33;;;;;;;13.85;9.10;;;;;;;22.94;40.90;94313.50;5068775;28;20045;-68
2022/04/22 10:59:27;;;;;;;9.55;2.83;;;;;;;23.20;41.61;94339.16;5064530;28;20053;-68
2022/04/22 11:01:55;;;;;;;9.47;5.73;;;;;;;23.39;40.46;94334.19;5063767;28;20056;-68
2022/04/22 11:04:27;;;;;;;13.20;7.07;;;;;;;23.61;39.44;94348.25;5070040;28;20094;-68
2022/04/22 11:06:53;;;;;;;4.85;3.58;;;;;;;23.87;40.20;94339.28;5058090;28;20050;-68
2022/04/22 11:09:29;;;;;;;8.55;4.93;;;;;;;23.99;40.59;94334.00;5059818;28;20041;-68
2022/04/22 11:11:58;;;;;;;9.88;3.03;;;;;;;24.32;39.69;94333.22;5055433;28;20099;-68
2022/04/22 11:14:27;;;;;;;18.02;4.90;;;;;;;24.54;38.81;94343.47;5049194;28;20127;-68
2022/04/22 11:16:55;;;;;;;11.45;4.60;;;;;;;24.71;39.81;94328.41;5049154;28;20037;-68
2022/04/22 11:19:26;;;;;;;11.68;5.43;;;;;;;25.01;37.87;94328.94;5043991;28;20052;-68
2022/04/22 11:21:58;;;;;;;11.75;3.33;;;;;;;25.09;36.50;94304.06;5065060;28;20049;-69
2022/04/22 11:24:31;;;;;;;10.38;2.33;;;;;;;25.13;37.95;94315.59;5050501;28;20048;-68
2022/04/22 11:27:14;;;;;;;7.55;2.35;;;;;;;24.75;36.17;94310.66;5047786;28;20112;-68
2022/04/22 11:29:43;;;;;;;9.23;4.22;;;;;;;24.71;35.25;94309.75;5045352;28;20049;-68
2022/04/22 11:32:21;;;;;;;8.80;3.03;;;;;;;24.73;36.54;94310.19;5042684;28;20056;-68
2022/04/22 11:35:11;;;;;;;9.45;3.72;;;;;;;24.73;35.78;94318.19;5049485;28;20052;-68
2022/04/22 11:37:38;;;;;;;10.25;4.03;;;;;;;24.29;37.52;94309.91;5058044;28;20094;-68
2022/04/22 11:40:08;;;;;;;7.95;3.55;;;;;;;24.23;37.88;94307.47;5064234;28;20102;-68
2022/04/22 11:42:43;;;;;;;11.75;4.03;;;;;;;24.20;36.43;94286.84;5062570;28;20559;-68
2022/04/22 11:45:16;;;;;;;7.00;3.63;;;;;;;24.20;37.59;94276.22;5063344;28;20045;-68
2022/04/22 11:47:43;;;;;;;4.13;2.90;;;;;;;24.18;37.83;94278.44;5030060;28;20118;-68
2022/04/22 11:50:19;;;;;;;6.65;3.33;;;;;;;24.16;37.24;94285.94;5044551;28;20854;-68
2022/04/22 11:52:58;;;;;;;10.80;4.45;;;;;;;24.23;37.72;94280.84;5046335;28;20115;-68
2022/04/22 11:55:26;;;;;;;7.35;3.45;;;;;;;24.41;37.96;94267.34;5052453;28;20232;-68
2022/04/22 11:57:53;;;;;;;7.22;3.83;;;;;;;24.37;37.95;94266.47;5048167;28;20048;-68
2022/04/22 12:05:52;;;;;;;8.95;3.85;;;;;;;24.87;37.88;94268.03;5051456;28;20053;-68
2022/04/22 12:08:20;;;;;;;6.80;3.55;;;;;;;24.86;37.26;94269.13;5050038;28;20048;-69
2022/04/22 12:10:49;;;;;;;5.55;3.42;;;;;;;25.12;37.01;94275.97;5050760;28;20040;-68
2022/04/22 12:13:16;;;;;;;7.45;3.60;;;;;;;25.21;36.69;94273.97;5055704;28;20444;-69
2022/04/22 12:15:46;;;;;;;6.82;3.90;;;;;;;25.25;37.54;94277.53;5056006;28;20466;-68
2022/04/22 12:18:29;;;;;;;8.48;3.53;;;;;;;25.17;36.58;94267.72;5046461;28;20152;-71
2022/04/22 12:20:57;;;;;;;7.25;3.50;;;;;;;25.06;37.22;94269.31;5054296;28;20036;-70
2022/04/22 12:23:41;;;;;;;6.57;3.90;;;;;;;25.35;36.54;94269.06;5056566;28;20052;-68
2022/04/22 12:26:21;;;;;;;10.10;3.90;;;;;;;25.48;36.58;94259.13;5049261;28;20067;-68
2022/04/22 12:29:18;;;;;;;7.43;3.40;;;;;;;25.28;36.37;94252.88;5053653;28;20055;-69
2022/04/22 12:31:55;;;;;;;6.68;3.15;;;;;;;25.46;36.26;94231.25;5044256;28;20051;-68
2022/04/22 12:34:31;;;;;;;3.92;3.58;;;;;;;25.45;36.69;94232.38;5042443;28;20134;-68
2022/04/22 12:37:00;;;;;;;7.90;4.00;;;;;;;25.65;35.96;94228.72;5038463;28;20060;-70
2022/04/22 12:39:49;;;;;;;7.15;4.22;;;;;;;25.92;35.94;94229.03;5044014;28;20161;-68
2022/04/22 12:42:16;;;;;;;6.82;3.33;;;;;;;25.98;36.84;94235.66;5052194;28;20049;-67